createdAt,value
2019-02-17T00:00:35.937Z,3.15
2019-02-17T00:03:05.710Z,10.08
2019-02-17T00:05:35.023Z,4.50
2019-02-17T00:08:04.176Z,4.12
2019-02-17T00:10:33.477Z,6.40
2019-02-17T00:13:02.860Z,10.15
2019-02-17T00:15:32.331Z,8.05
2019-02-17T00:18:01.384Z,5.78
2019-02-17T00:20:30.612Z,3.77
2019-02-17T00:22:59.549Z,6.80
2019-02-17T00:25:28.667Z,3.75
2019-02-17T00:27:57.744Z,10.03
2019-02-17T00:30:26.489Z,6.10
2019-02-17T00:32:55.117Z,8.40
2019-02-17T00:35:23.677Z,9.38
2019-02-17T00:37:52.363Z,6.97
2019-02-17T00:40:22.689Z,3.12
2019-02-17T00:42:52.605Z,5.65
2019-02-17T00:45:21.814Z,8.15
2019-02-17T00:47:50.579Z,5.72
2019-02-17T00:50:19.883Z,4.50
2019-02-17T00:52:49.188Z,6.05
2019-02-17T00:55:18.388Z,4.35
2019-02-17T00:57:47.602Z,4.28
2019-02-17T01:00:17.130Z,5.17
2019-02-17T01:02:46.302Z,3.90
2019-02-17T01:05:15.436Z,3.45
2019-02-17T01:07:44.938Z,5.78
2019-02-17T01:10:14.607Z,5.05
2019-02-17T01:12:43.908Z,4.50
2019-02-17T01:15:13.374Z,7.87
2019-02-17T01:17:42.146Z,5.30
2019-02-17T01:20:11.384Z,3.80
2019-02-17T01:22:40.179Z,4.10
2019-02-17T01:25:10.095Z,6.72
2019-02-17T01:27:39.060Z,7.97
2019-02-17T01:30:12.632Z,13.53
2019-02-17T01:32:42.213Z,17.30
2019-02-17T01:35:12.045Z,7.60
2019-02-17T01:37:42.844Z,3.87
2019-02-17T01:40:12.782Z,11.95
2019-02-17T01:42:43.439Z,14.98
2019-02-17T01:45:12.907Z,21.90
2019-02-17T01:47:42.723Z,15.65
2019-02-17T01:50:13.165Z,15.25
2019-02-17T01:52:43.600Z,12.23
2019-02-17T01:55:12.658Z,9.60
2019-02-17T01:57:41.409Z,10.08
2019-02-17T02:00:14.980Z,10.30
2019-02-17T02:02:43.711Z,13.10
2019-02-17T02:05:12.539Z,14.70
2019-02-17T02:07:44.325Z,16.70
2019-02-17T02:10:14.992Z,20.15
2019-02-17T02:12:44.402Z,13.08
2019-02-17T02:15:13.574Z,20.85
2019-02-17T02:17:42.796Z,17.45
2019-02-17T02:20:12.999Z,14.30
2019-02-17T02:22:42.198Z,12.93
2019-02-17T02:25:11.441Z,12.53
2019-02-17T02:27:40.861Z,12.45
2019-02-17T02:30:12.139Z,15.83
2019-02-17T02:32:41.641Z,23.38
2019-02-17T02:35:11.024Z,39.95
2019-02-17T02:37:40.347Z,21.27
2019-02-17T02:40:09.426Z,22.62
2019-02-17T02:42:39.228Z,25.62
2019-02-17T02:45:11.158Z,18.45
2019-02-17T02:47:41.526Z,19.73
2019-02-17T02:50:12.093Z,19.12
2019-02-17T02:52:41.426Z,18.87
2019-02-17T02:55:10.662Z,19.02
2019-02-17T02:57:39.796Z,23.35
2019-02-17T03:00:13.368Z,27.73
2019-02-17T03:02:43.202Z,21.87
2019-02-17T03:05:12.326Z,16.73
2019-02-17T03:07:41.502Z,12.78
2019-02-17T03:10:11.051Z,14.50
2019-02-17T03:12:40.390Z,14.03
2019-02-17T03:15:09.676Z,11.75
2019-02-17T03:17:39.221Z,10.53
2019-02-17T03:20:09.542Z,10.70
2019-02-17T03:22:39.093Z,13.50
2019-02-17T03:25:08.102Z,12.23
2019-02-17T03:27:36.748Z,13.45
2019-02-17T03:30:08.989Z,12.35
2019-02-17T03:32:38.251Z,10.85
2019-02-17T03:35:07.765Z,14.00
2019-02-17T03:37:37.178Z,12.13
2019-02-17T03:40:08.256Z,18.02
2019-02-17T03:42:38.185Z,15.60
2019-02-17T03:45:10.154Z,17.20
2019-02-17T03:47:39.384Z,18.35
2019-02-17T03:50:08.571Z,14.98
2019-02-17T03:52:37.959Z,21.90
2019-02-17T03:55:07.037Z,13.05
2019-02-17T03:57:35.958Z,16.40
2019-02-17T04:00:16.624Z,21.90
2019-02-17T04:02:37.144Z,37.98
2019-02-17T04:05:06.686Z,69.95
2019-02-17T04:07:36.022Z,105.47
2019-02-17T04:10:05.308Z,114.85
2019-02-17T04:12:34.554Z,137.37
2019-02-17T04:15:03.879Z,140.85
2019-02-17T04:17:33.180Z,86.60
2019-02-17T04:20:02.117Z,87.88
2019-02-17T04:22:31.308Z,51.30
2019-02-17T04:25:00.528Z,46.45
2019-02-17T04:27:29.575Z,37.20
2019-02-17T04:29:58.623Z,26.73
2019-02-17T04:32:27.930Z,23.10
2019-02-17T04:34:57.274Z,22.75
2019-02-17T04:37:26.381Z,43.10
2019-02-17T04:39:56.258Z,31.00
2019-02-17T04:42:25.171Z,29.95
2019-02-17T04:44:54.626Z,40.58
2019-02-17T04:47:23.816Z,40.20
2019-02-17T04:49:54.028Z,48.05
2019-02-17T04:52:23.305Z,38.70
2019-02-17T04:54:51.873Z,37.15
2019-02-17T04:57:20.498Z,29.63
2019-02-17T04:59:49.321Z,26.10
2019-02-17T05:02:18.568Z,29.95
2019-02-17T05:04:48.210Z,20.05
2019-02-17T05:07:17.367Z,25.32
2019-02-17T05:09:46.790Z,22.30
2019-02-17T05:12:16.275Z,31.95
2019-02-17T05:14:45.617Z,28.75
2019-02-17T05:17:14.984Z,27.87
2019-02-17T05:19:44.194Z,25.35
2019-02-17T05:22:13.112Z,28.05
2019-02-17T05:24:43.187Z,23.92
2019-02-17T05:27:12.595Z,26.80
2019-02-17T05:29:41.830Z,25.50
2019-02-17T05:32:11.112Z,23.20
2019-02-17T05:34:42.348Z,21.68
2019-02-17T05:37:11.383Z,21.42
2019-02-17T05:39:40.032Z,22.25
2019-02-17T05:42:08.581Z,25.12
2019-02-17T05:44:37.326Z,18.30
2019-02-17T05:47:06.006Z,17.02
2019-02-17T05:49:35.009Z,21.00
2019-02-17T05:52:04.194Z,39.00
2019-02-17T05:54:33.262Z,28.62
2019-02-17T05:57:02.289Z,15.55
2019-02-17T05:59:31.386Z,15.10
2019-02-17T06:02:00.312Z,16.20
2019-02-17T06:04:29.725Z,17.55
2019-02-17T06:06:59.001Z,18.70
2019-02-17T06:09:28.233Z,19.32
2019-02-17T06:11:57.533Z,26.57
2019-02-17T06:14:26.600Z,23.45
2019-02-17T06:16:55.890Z,27.45
2019-02-17T06:19:26.024Z,26.10
2019-02-17T06:21:54.569Z,28.32
2019-02-17T06:24:23.122Z,39.25
2019-02-17T06:26:52.651Z,21.93
2019-02-17T06:29:22.293Z,18.92
2019-02-17T06:31:51.840Z,17.15
2019-02-17T06:34:20.960Z,12.58
2019-02-17T06:36:50.201Z,10.08
2019-02-17T06:39:19.555Z,6.80
2019-02-17T06:41:49.203Z,6.25
2019-02-17T06:44:18.312Z,9.98
2019-02-17T06:46:49.093Z,7.87
2019-02-17T06:49:18.528Z,9.15
2019-02-17T06:51:47.948Z,11.12
2019-02-17T06:54:17.442Z,22.60
2019-02-17T06:56:48.068Z,19.50
2019-02-17T06:59:17.362Z,16.05
2019-02-17T07:01:46.615Z,11.25
2019-02-17T07:04:16.018Z,8.43
2019-02-17T07:06:49.803Z,10.25
2019-02-17T07:09:19.070Z,7.90
2019-02-17T07:11:47.641Z,10.35
2019-02-17T07:14:16.288Z,6.53
2019-02-17T07:16:44.903Z,7.92
2019-02-17T07:19:13.878Z,9.48
2019-02-17T07:21:43.338Z,7.22
2019-02-17T07:24:12.597Z,7.12
2019-02-17T07:26:42.642Z,8.20
2019-02-17T07:29:11.941Z,6.55
2019-02-17T07:31:41.132Z,6.72
2019-02-17T07:34:10.302Z,6.58
2019-02-17T07:36:39.445Z,8.55
2019-02-17T07:39:08.664Z,7.50
2019-02-17T07:41:38.340Z,6.40
2019-02-17T07:44:07.653Z,5.80
2019-02-17T07:46:36.802Z,5.90
2019-02-17T07:49:06.133Z,5.42
2019-02-17T07:51:34.814Z,6.30
2019-02-17T07:54:03.468Z,6.20
2019-02-17T07:56:32.276Z,5.25
2019-02-17T07:59:00.864Z,5.20
2019-02-17T08:01:30.054Z,5.37
2019-02-17T08:03:59.164Z,5.30
2019-02-17T08:06:28.492Z,5.95
2019-02-17T08:08:57.621Z,7.97
2019-02-17T08:11:26.847Z,6.75
2019-02-17T08:13:56.974Z,8.43
2019-02-17T08:16:26.289Z,6.72
2019-02-17T08:18:55.426Z,7.78
2019-02-17T08:21:25.383Z,8.58
2019-02-17T08:23:55.470Z,7.85
2019-02-17T08:26:24.567Z,8.25
2019-02-17T08:28:53.705Z,7.60
2019-02-17T08:31:22.863Z,8.98
2019-02-17T08:33:52.069Z,31.15
2019-02-17T08:36:21.830Z,18.50
2019-02-17T08:38:51.069Z,13.75
2019-02-17T08:41:20.089Z,13.72
2019-02-17T08:43:49.430Z,12.82
2019-02-17T08:46:18.557Z,8.65
2019-02-17T08:48:48.062Z,11.40
2019-02-17T08:51:19.176Z,10.78
2019-02-17T08:53:48.647Z,15.38
2019-02-17T08:56:18.777Z,17.75
2019-02-17T08:58:48.703Z,21.35
2019-02-17T09:01:18.155Z,17.75
2019-02-17T09:03:47.572Z,17.32
2019-02-17T09:06:16.796Z,15.28
2019-02-17T09:08:46.052Z,10.00
2019-02-17T09:11:15.144Z,12.05
2019-02-17T09:13:45.207Z,19.15
2019-02-17T09:16:14.667Z,20.57
2019-02-17T09:18:44.107Z,13.43
2019-02-17T09:21:13.534Z,10.50
2019-02-17T09:23:42.069Z,8.60
2019-02-17T09:26:10.716Z,10.65
2019-02-17T09:28:39.385Z,8.30
2019-02-17T09:31:08.837Z,9.25
2019-02-17T09:33:37.936Z,11.22
2019-02-17T09:36:07.382Z,7.15
2019-02-17T09:38:36.648Z,10.78
2019-02-17T09:41:06.149Z,8.98
2019-02-17T09:43:35.319Z,9.93
2019-02-17T09:46:06.638Z,9.13
2019-02-17T09:48:38.289Z,11.25
2019-02-17T09:51:07.499Z,10.72
2019-02-17T09:53:37.001Z,14.70
2019-02-17T09:56:06.410Z,12.90
2019-02-17T09:58:36.528Z,13.00
2019-02-17T10:01:06.108Z,12.05
2019-02-17T10:03:35.261Z,11.60
2019-02-17T10:06:04.083Z,10.00
2019-02-17T10:08:32.734Z,9.18
2019-02-17T10:11:01.411Z,9.88
2019-02-17T10:13:30.237Z,12.50
2019-02-17T10:15:59.679Z,12.25
2019-02-17T10:18:28.952Z,15.35
2019-02-17T10:20:58.202Z,11.45
2019-02-17T10:23:27.878Z,12.70
2019-02-17T10:25:57.153Z,11.55
2019-02-17T10:28:26.540Z,16.07
2019-02-17T10:30:55.793Z,14.53
2019-02-17T10:33:25.116Z,14.33
2019-02-17T10:35:54.378Z,13.08
2019-02-17T10:38:23.335Z,15.30
2019-02-17T10:40:52.484Z,14.60
2019-02-17T10:43:21.468Z,22.32
2019-02-17T10:45:51.325Z,18.60
2019-02-17T10:48:20.399Z,14.20
2019-02-17T10:50:49.049Z,24.30
2019-02-17T10:53:18.502Z,23.60
2019-02-17T10:55:47.471Z,31.17
2019-02-17T10:58:16.647Z,26.35
2019-02-17T11:00:45.749Z,27.32
2019-02-17T11:03:15.349Z,24.40
2019-02-17T11:05:44.549Z,26.27
2019-02-17T11:08:13.521Z,18.82
2019-02-17T11:10:42.637Z,18.15
2019-02-17T11:13:11.728Z,21.35
2019-02-17T11:15:40.807Z,21.57
2019-02-17T11:18:09.849Z,21.70
2019-02-17T11:20:39.131Z,12.93
2019-02-17T11:23:08.319Z,15.18
2019-02-17T11:25:37.412Z,13.58
2019-02-17T11:28:06.841Z,12.03
2019-02-17T11:30:35.908Z,12.95
2019-02-17T11:33:04.674Z,8.58
2019-02-17T11:35:33.217Z,7.62
2019-02-17T11:38:02.279Z,9.60
2019-02-17T11:40:30.927Z,9.25
2019-02-17T11:42:59.460Z,12.68
2019-02-17T11:45:28.834Z,8.13
2019-02-17T11:47:58.172Z,10.93
2019-02-17T11:50:27.527Z,7.40
2019-02-17T11:52:56.532Z,9.90
2019-02-17T11:55:25.747Z,12.88
2019-02-17T11:57:55.735Z,10.88
2019-02-17T12:00:25.072Z,8.30
2019-02-17T12:02:54.156Z,9.55
2019-02-17T12:05:24.253Z,9.35
2019-02-17T12:07:53.350Z,11.35
2019-02-17T12:10:22.335Z,7.75
2019-02-17T12:12:51.403Z,9.68
2019-02-17T12:15:20.737Z,11.68
2019-02-17T12:17:49.389Z,8.65
2019-02-17T12:20:21.811Z,6.78
2019-02-17T12:22:52.058Z,6.40
2019-02-17T12:25:22.388Z,6.53
2019-02-17T12:27:53.475Z,5.37
2019-02-17T12:30:22.602Z,8.75
2019-02-17T12:32:51.945Z,7.87
2019-02-17T12:35:21.272Z,6.95
2019-02-17T12:37:50.501Z,5.92
2019-02-17T12:40:19.425Z,9.33
2019-02-17T12:42:51.044Z,8.93
2019-02-17T12:45:20.426Z,10.90
2019-02-17T12:47:57.505Z,7.28
2019-02-17T12:50:20.332Z,7.85
2019-02-17T12:52:49.394Z,8.40
2019-02-17T12:55:18.950Z,5.47
2019-02-17T12:57:48.019Z,6.85
2019-02-17T13:00:18.121Z,7.42
2019-02-17T13:02:47.087Z,7.35
2019-02-17T13:05:16.526Z,4.90
2019-02-17T13:07:45.373Z,6.33
2019-02-17T13:10:14.985Z,9.50
2019-02-17T13:12:43.950Z,6.75
2019-02-17T13:15:14.092Z,9.23
2019-02-17T13:17:44.666Z,5.60
2019-02-17T13:20:15.165Z,6.40
2019-02-17T13:22:45.332Z,6.55
2019-02-17T13:25:17.877Z,6.12
2019-02-17T13:27:47.213Z,10.32
2019-02-17T13:30:21.663Z,5.67
2019-02-17T13:32:50.930Z,10.35
2019-02-17T13:35:20.010Z,9.93
2019-02-17T13:37:49.375Z,9.48
2019-02-17T13:40:18.557Z,8.55
2019-02-17T13:42:47.860Z,10.68
2019-02-17T13:45:17.387Z,7.80
2019-02-17T13:47:46.196Z,13.98
2019-02-17T13:50:16.656Z,10.72
2019-02-17T13:52:46.253Z,11.38
2019-02-17T13:55:15.002Z,8.33
2019-02-17T13:57:44.103Z,8.20
2019-02-17T14:00:18.569Z,11.25
2019-02-17T14:02:47.875Z,12.90
2019-02-17T14:05:17.468Z,11.88
2019-02-17T14:07:46.658Z,12.05
2019-02-17T14:10:15.718Z,10.75
2019-02-17T14:12:44.855Z,9.33
2019-02-17T14:15:19.218Z,9.43
2019-02-17T14:17:48.355Z,12.55
2019-02-17T14:20:17.609Z,11.35
2019-02-17T14:22:47.053Z,8.58
2019-02-17T14:25:16.363Z,11.70
2019-02-17T14:27:45.699Z,13.58
2019-02-17T14:30:15.238Z,10.20
2019-02-17T14:32:43.761Z,10.53
2019-02-17T14:35:13.509Z,9.90
2019-02-17T14:37:42.179Z,10.58
2019-02-17T14:40:12.429Z,9.85
2019-02-17T14:42:41.847Z,11.93
2019-02-17T14:45:12.904Z,10.93
2019-02-17T14:47:41.944Z,11.80
2019-02-17T14:50:11.641Z,12.68
2019-02-17T14:52:40.751Z,12.68
2019-02-17T14:55:10.972Z,13.65
2019-02-17T14:57:40.347Z,13.65
2019-02-17T15:00:14.617Z,15.15
2019-02-17T15:02:44.072Z,14.85
2019-02-17T15:05:13.110Z,15.72
2019-02-17T15:07:42.124Z,15.05
2019-02-17T15:10:14.502Z,14.68
2019-02-17T15:12:44.085Z,12.45
2019-02-17T15:15:16.538Z,14.93
2019-02-17T15:17:45.404Z,18.23
2019-02-17T15:20:18.955Z,13.13
2019-02-17T15:22:47.694Z,12.28
2019-02-17T15:25:17.384Z,13.03
2019-02-17T15:27:46.907Z,10.75
2019-02-17T15:30:17.999Z,13.40
2019-02-17T15:32:47.340Z,11.90
2019-02-17T15:35:17.572Z,13.55
2019-02-17T15:37:46.701Z,12.28
2019-02-17T15:40:16.998Z,15.00
2019-02-17T15:42:46.244Z,12.78
2019-02-17T15:45:15.639Z,20.95
2019-02-17T15:47:44.972Z,16.75
2019-02-17T15:50:14.917Z,12.70
2019-02-17T15:52:45.697Z,12.93
2019-02-17T15:55:17.877Z,14.58
2019-02-17T15:57:49.374Z,14.85
2019-02-17T16:00:19.107Z,11.70
2019-02-17T16:02:48.385Z,11.12
2019-02-17T16:05:17.150Z,12.65
2019-02-17T16:07:45.768Z,12.98
2019-02-17T16:10:15.945Z,13.62
2019-02-17T16:12:45.106Z,16.07
2019-02-17T16:15:18.881Z,14.60
2019-02-17T16:17:48.018Z,15.38
2019-02-17T16:20:17.172Z,10.50
2019-02-17T16:22:46.415Z,11.25
2019-02-17T16:25:16.573Z,12.47
2019-02-17T16:27:45.627Z,11.75
2019-02-17T16:30:19.839Z,11.85
2019-02-17T16:32:49.170Z,12.50
2019-02-17T16:35:18.434Z,12.03
2019-02-17T16:37:48.038Z,11.03
2019-02-17T16:40:17.702Z,12.95
2019-02-17T16:42:46.406Z,10.90
2019-02-17T16:45:15.308Z,9.48
2019-02-17T16:47:44.535Z,10.15
2019-02-17T16:50:24.494Z,10.23
2019-02-17T16:52:53.947Z,11.05
2019-02-17T16:55:23.453Z,12.07
2019-02-17T16:57:52.987Z,9.55
2019-02-17T17:00:23.263Z,9.50
2019-02-17T17:02:52.961Z,10.98
2019-02-17T17:05:22.595Z,10.58
2019-02-17T17:07:51.884Z,7.62
2019-02-17T17:10:21.202Z,9.73
2019-02-17T17:12:50.514Z,14.35
2019-02-17T17:15:20.102Z,10.70
2019-02-17T17:17:49.420Z,9.08
2019-02-17T17:20:20.435Z,8.28
2019-02-17T17:22:50.497Z,9.20
2019-02-17T17:25:19.442Z,8.10
2019-02-17T17:27:48.881Z,9.98
2019-02-17T17:30:18.842Z,9.18
2019-02-17T17:32:47.466Z,8.40
2019-02-17T17:35:16.231Z,9.15
2019-02-17T17:37:45.121Z,10.15
2019-02-17T17:40:15.998Z,9.20
2019-02-17T17:42:45.650Z,7.87
2019-02-17T17:45:23.692Z,8.15
2019-02-17T17:47:53.839Z,8.35
2019-02-17T17:50:23.002Z,11.80
2019-02-17T17:52:52.470Z,11.65
2019-02-17T17:55:22.579Z,11.93
2019-02-17T17:57:51.604Z,13.30
2019-02-17T18:00:22.518Z,11.80
2019-02-17T18:02:51.580Z,12.00
2019-02-17T18:05:20.863Z,12.18
2019-02-17T18:07:50.242Z,12.63
2019-02-17T18:10:19.359Z,12.10
2019-02-17T18:12:48.006Z,10.38
2019-02-17T18:15:18.725Z,8.93
2019-02-17T18:17:53.783Z,9.65
2019-02-17T18:20:18.452Z,12.73
2019-02-17T18:22:47.698Z,14.65
2019-02-17T18:25:17.096Z,15.83
2019-02-17T18:27:46.354Z,14.90
2019-02-17T18:30:22.247Z,16.02
2019-02-17T18:32:51.451Z,12.82
2019-02-17T18:35:20.880Z,9.93
2019-02-17T18:37:50.408Z,9.10
2019-02-17T18:40:20.158Z,12.95
2019-02-17T18:42:49.336Z,9.85
2019-02-17T18:45:18.580Z,11.12
2019-02-17T18:47:47.498Z,9.88
2019-02-17T18:50:18.245Z,15.05
2019-02-17T18:52:47.404Z,9.53
2019-02-17T18:55:16.457Z,8.73
2019-02-17T18:57:49.897Z,9.38
2019-02-17T19:00:20.552Z,9.18
2019-02-17T19:02:49.271Z,10.68
2019-02-17T19:05:20.225Z,27.50
2019-02-17T19:07:48.508Z,10.43
2019-02-17T19:10:17.741Z,7.80
2019-02-17T19:12:47.068Z,11.78
2019-02-17T19:15:19.559Z,11.95
2019-02-17T19:17:48.734Z,8.35
2019-02-17T19:20:23.758Z,9.55
2019-02-17T19:22:53.358Z,10.90
2019-02-17T19:25:22.461Z,9.13
2019-02-17T19:27:51.328Z,10.03
2019-02-17T19:30:20.447Z,9.35
2019-02-17T19:32:51.051Z,7.78
2019-02-17T19:35:20.506Z,8.78
2019-02-17T19:37:49.927Z,9.45
2019-02-17T19:40:18.567Z,10.43
2019-02-17T19:42:47.221Z,11.33
2019-02-17T19:45:17.636Z,9.45
2019-02-17T19:47:47.176Z,10.40
2019-02-17T19:50:16.460Z,11.20
2019-02-17T19:52:45.198Z,12.93
2019-02-17T19:55:14.261Z,10.80
2019-02-17T19:57:43.579Z,10.93
2019-02-17T20:00:19.491Z,9.23
2019-02-17T20:02:50.146Z,10.18
2019-02-17T20:05:20.986Z,9.05
2019-02-17T20:07:50.103Z,8.67
2019-02-17T20:10:19.315Z,8.00
2019-02-17T20:12:48.313Z,10.10
2019-02-17T20:15:17.582Z,8.80
2019-02-17T20:17:46.453Z,8.47
2019-02-17T20:20:15.884Z,7.00
2019-02-17T20:22:45.857Z,8.30
2019-02-17T20:25:15.121Z,8.37
2019-02-17T20:27:43.759Z,8.23
2019-02-17T20:30:15.365Z,6.57
2019-02-17T20:32:44.008Z,10.83
2019-02-17T20:35:12.868Z,7.83
2019-02-17T20:37:42.517Z,8.33
2019-02-17T20:40:16.455Z,6.43
2019-02-17T20:42:45.997Z,5.33
2019-02-17T20:45:15.354Z,5.10
2019-02-17T20:47:44.692Z,4.63
2019-02-17T20:50:17.664Z,4.10
2019-02-17T20:52:46.845Z,6.20
2019-02-17T20:55:16.302Z,4.77
2019-02-17T20:57:45.793Z,4.70
2019-02-17T21:00:16.447Z,4.13
2019-02-17T21:02:45.810Z,5.43
2019-02-17T21:05:14.852Z,6.43
2019-02-17T21:07:43.958Z,22.33
2019-02-17T21:10:13.500Z,9.30
2019-02-17T21:12:42.292Z,15.45
2019-02-17T21:15:13.298Z,4.93
2019-02-17T21:17:42.089Z,7.43
2019-02-17T21:20:11.233Z,8.13
2019-02-17T21:22:40.637Z,3.97
2019-02-17T21:25:11.154Z,23.67
2019-02-17T21:27:40.989Z,8.40
2019-02-17T21:30:16.927Z,5.30
2019-02-17T21:32:46.246Z,5.60
2019-02-17T21:35:17.081Z,3.33
2019-02-17T21:37:46.276Z,4.20
2019-02-17T21:40:16.378Z,5.80
2019-02-17T21:42:45.960Z,3.20
2019-02-17T21:45:15.776Z,2.70
2019-02-17T21:47:45.834Z,3.83
2019-02-17T21:50:15.615Z,3.63
2019-02-17T21:52:45.210Z,4.47
2019-02-17T21:55:14.771Z,5.10
2019-02-17T21:57:43.419Z,6.33
2019-02-17T22:00:19.780Z,4.10
2019-02-17T22:02:49.121Z,6.37
2019-02-17T22:05:18.884Z,2.80
2019-02-17T22:07:48.369Z,3.00
2019-02-17T22:10:18.456Z,2.73
2019-02-17T22:12:47.879Z,2.20
2019-02-17T22:15:18.521Z,3.70
2019-02-17T22:17:47.543Z,1.93
2019-02-17T22:20:16.737Z,5.93
2019-02-17T22:22:46.071Z,2.70
2019-02-17T22:25:18.466Z,2.80
2019-02-17T22:27:48.592Z,3.80
2019-02-17T22:30:17.819Z,1.60
2019-02-17T22:32:46.991Z,1.77
2019-02-17T22:35:15.754Z,2.20
2019-02-17T22:37:45.152Z,3.30
2019-02-17T22:40:14.862Z,4.43
2019-02-17T22:42:44.268Z,3.90
2019-02-17T22:45:13.702Z,2.90
2019-02-17T22:47:42.973Z,4.63
2019-02-17T22:50:13.973Z,3.05
2019-02-17T22:52:43.526Z,3.17
2019-02-17T22:55:13.202Z,3.67
2019-02-17T22:57:42.561Z,3.60
2019-02-17T23:00:31.808Z,4.90
2019-02-17T23:03:01.112Z,3.35
2019-02-17T23:05:31.230Z,3.25
2019-02-17T23:08:00.497Z,6.30
2019-02-17T23:10:29.979Z,4.40
2019-02-17T23:12:59.671Z,6.22
2019-02-17T23:15:30.067Z,3.85
2019-02-17T23:17:59.275Z,4.50
2019-02-17T23:20:28.902Z,4.15
2019-02-17T23:22:57.517Z,2.87
2019-02-17T23:25:26.095Z,3.15
2019-02-17T23:27:54.891Z,2.00
2019-02-17T23:30:23.663Z,2.52
2019-02-17T23:32:53.234Z,2.80
2019-02-17T23:35:22.567Z,2.40
2019-02-17T23:37:52.745Z,3.08
2019-02-17T23:40:22.094Z,2.77
2019-02-17T23:42:52.643Z,2.20
2019-02-17T23:45:22.219Z,3.90
2019-02-17T23:47:51.640Z,3.80
2019-02-17T23:50:21.232Z,2.50
2019-02-17T23:52:50.426Z,4.92
2019-02-17T23:55:19.816Z,3.45
2019-02-17T23:57:49.769Z,3.20
